Time;durP1;ratioP1;P1;durP2;ratioP2;P2;SDS_P1;SDS_P2;PMS_P1;PMS_P2;Temp;Humidity;BMP_temperature;BMP_pressure;BME280_temperature;BME280_humidity;BME280_pressure;Samples;Min_cycle;Max_cycle;Signal;HPM_P1;HPM_P2
2022/12/28 00:00:22;;;;;;;12.93;5.90;;;3.20;5.00;;;;;;5051774;28;20272;-69
2022/12/28 00:02:48;;;;;;;9.10;5.50;;;3.20;5.60;;;;;;5048159;28;20657;-68
2022/12/28 00:05:13;;;;;;;8.83;5.23;;;3.20;6.50;;;;;;5051836;28;20894;-69
2022/12/28 00:07:39;;;;;;;13.30;7.30;;;3.20;8.00;;;;;;5050688;28;20188;-69
2022/12/28 00:10:05;;;;;;;7.53;5.37;;;3.50;7.90;;;;;;5050616;28;20544;-69
2022/12/28 00:12:31;;;;;;;8.20;4.47;;;3.30;4.60;;;;;;5049278;28;20229;-69
2022/12/28 00:14:57;;;;;;;8.40;4.67;;;3.50;2.20;;;;;;5052221;28;20874;-69
2022/12/28 00:17:23;;;;;;;7.20;4.40;;;3.20;4.10;;;;;;5050514;28;20506;-67
2022/12/28 00:19:49;;;;;;;6.10;4.10;;;3.20;1.00;;;;;;5050933;28;20963;-70
2022/12/28 00:22:14;;;;;;;7.93;4.77;;;3.20;1.80;;;;;;5050948;28;20766;-68
2022/12/28 00:24:40;;;;;;;12.40;4.77;;;3.20;3.10;;;;;;5053384;28;20185;-70
2022/12/28 00:27:05;;;;;;;9.00;4.50;;;3.30;4.10;;;;;;5051517;28;20543;-68
2022/12/28 00:29:31;;;;;;;7.30;4.30;;;3.30;4.00;;;;;;5046424;28;20177;-69
2022/12/28 00:31:56;;;;;;;6.50;4.40;;;3.40;6.80;;;;;;5048615;28;20189;-68
2022/12/28 00:34:22;;;;;;;10.77;4.73;;;3.50;6.40;;;;;;5051203;28;20195;-70
2022/12/28 00:36:50;;;;;;;7.30;4.73;;;4.00;8.10;;;;;;5050738;28;20715;-68
2022/12/28 00:39:16;;;;;;;6.70;5.10;;;3.80;3.40;;;;;;5050536;28;20173;-70
2022/12/28 00:41:42;;;;;;;12.00;5.10;;;3.90;6.30;;;;;;5049305;28;20494;-69
2022/12/28 00:44:08;;;;;;;10.50;5.43;;;4.00;4.60;;;;;;5050849;28;20444;-69
2022/12/28 00:46:33;;;;;;;10.37;5.73;;;4.10;2.90;;;;;;5050662;28;22325;-68
2022/12/28 00:48:59;;;;;;;9.03;5.13;;;4.10;2.30;;;;;;5050377;28;20223;-69
2022/12/28 00:51:24;;;;;;;8.23;5.20;;;4.40;3.00;;;;;;5051052;28;20197;-69
2022/12/28 00:53:50;;;;;;;11.20;5.20;;;4.20;3.00;;;;;;5065026;28;20204;-68
2022/12/28 00:56:17;;;;;;;9.60;4.87;;;4.30;2.00;;;;;;5049697;28;20262;-70
2022/12/28 00:58:44;;;;;;;8.03;5.63;;;4.40;1.00;;;;;;5047962;28;20268;-69
2022/12/28 01:01:13;;;;;;;10.40;5.50;;;4.40;1.00;;;;;;5049302;28;20451;-69
2022/12/28 01:03:39;;;;;;;12.10;5.33;;;4.40;1.00;;;;;;5049941;28;20431;-69
2022/12/28 01:06:06;;;;;;;9.13;5.80;;;4.50;1.00;;;;;;5049453;28;20904;-69
2022/12/28 01:08:31;;;;;;;8.20;5.17;;;4.50;1.00;;;;;;5049061;28;20188;-69
2022/12/28 01:10:57;;;;;;;13.10;5.37;;;4.50;1.00;;;;;;5048604;28;20451;-69
2022/12/28 01:13:22;;;;;;;8.43;5.50;;;4.60;1.00;;;;;;5042803;28;20598;-69
2022/12/28 01:15:48;;;;;;;12.10;6.50;;;4.50;1.00;;;;;;5050503;28;20213;-70
2022/12/28 01:18:14;;;;;;;9.60;5.60;;;4.50;1.00;;;;;;5058173;28;20184;-68
2022/12/28 01:20:40;;;;;;;8.63;5.40;;;4.90;1.00;;;;;;5049231;28;20193;-68
2022/12/28 01:23:06;;;;;;;8.50;5.97;;;4.50;1.00;;;;;;5049933;28;20438;-69
2022/12/28 01:25:32;;;;;;;11.43;5.83;;;5.00;1.00;;;;;;5049123;28;20188;-68
2022/12/28 01:27:58;;;;;;;8.30;5.77;;;4.70;1.00;;;;;;5049279;28;20180;-68
2022/12/28 01:30:23;;;;;;;10.70;5.73;;;4.70;1.00;;;;;;5048728;28;20443;-71
2022/12/28 01:32:49;;;;;;;17.73;5.70;;;5.40;1.00;;;;;;5057540;28;20204;-70
2022/12/28 01:35:14;;;;;;;6.40;4.87;;;5.10;1.00;;;;;;5049079;28;20699;-70
2022/12/28 01:37:40;;;;;;;13.53;6.00;;;4.80;1.00;;;;;;5048299;28;20684;-70
2022/12/28 01:40:06;;;;;;;7.73;5.00;;;4.80;1.00;;;;;;5044842;28;20216;-70
2022/12/28 01:42:31;;;;;;;8.50;4.40;;;5.00;1.00;;;;;;5049273;28;20295;-69
2022/12/28 01:45:14;;;;;;;8.07;4.40;;;5.00;1.00;;;;;;5047698;28;20192;-71
2022/12/28 01:47:39;;;;;;;6.97;5.07;;;5.00;1.00;;;;;;5049307;28;20169;-70
2022/12/28 01:50:12;;;;;;;7.67;5.00;;;5.00;1.00;;;;;;5049876;28;20432;-70
2022/12/28 01:52:47;;;;;;;6.63;4.67;;;5.10;1.00;;;;;;5056668;28;20180;-71
2022/12/28 01:55:20;;;;;;;7.23;4.67;;;5.20;1.00;;;;;;5048555;28;20465;-71
2022/12/28 01:57:52;;;;;;;7.17;4.90;;;5.20;1.00;;;;;;5049662;28;20423;-69
2022/12/28 02:00:18;;;;;;;10.33;6.27;;;5.50;1.00;;;;;;5049545;28;20477;-70
2022/12/28 02:02:52;;;;;;;16.80;5.33;;;5.30;1.00;;;;;;5044785;28;20506;-70
2022/12/28 02:05:21;;;;;;;6.80;4.33;;;5.30;1.00;;;;;;5047409;28;20176;-70
2022/12/28 02:07:59;;;;;;;10.53;4.10;;;5.20;1.00;;;;;;5049879;28;20774;-70
2022/12/28 02:10:26;;;;;;;7.30;4.63;;;5.30;1.00;;;;;;5045600;28;20451;-70
2022/12/28 02:12:53;;;;;;;7.60;4.80;;;5.50;1.00;;;;;;5048826;28;20451;-71
2022/12/28 02:15:19;;;;;;;6.70;4.60;;;5.30;1.00;;;;;;5048289;28;20455;-70
2022/12/28 02:17:44;;;;;;;7.60;4.00;;;5.40;1.00;;;;;;5049860;28;20514;-70
2022/12/28 02:20:10;;;;;;;8.23;4.07;;;5.80;1.00;;;;;;5048197;28;20682;-71
2022/12/28 02:23:02;;;;;;;9.13;4.40;;;5.40;1.00;;;;;;5072066;28;20259;-71
2022/12/28 02:26:24;;;;;;;7.20;4.67;;;5.50;1.00;;;;;;5046024;28;20173;-70
2022/12/28 02:29:25;;;;;;;9.43;4.27;;;5.50;1.00;;;;;;4994547;28;21145;-70
2022/12/28 02:32:18;;;;;;;8.33;3.80;;;5.50;1.00;;;;;;4965335;28;20467;-71
2022/12/28 02:35:10;;;;;;;8.37;4.10;;;5.60;1.00;;;;;;5041246;28;20443;-70
2022/12/28 02:37:46;;;;;;;6.07;3.87;;;5.60;1.00;;;;;;5040566;28;20914;-70
2022/12/28 02:40:30;;;;;;;6.77;3.90;;;5.70;1.00;;;;;;5042147;28;21096;-70
2022/12/28 02:43:05;;;;;;;5.80;3.60;;;5.70;1.00;;;;;;5047071;28;20509;-71
2022/12/28 02:51:57;;;;;;;5.03;3.60;;;6.30;1.00;;;;;;5053257;28;20444;-70
2022/12/28 02:57:54;;;;;;;4.70;3.83;;;5.80;1.00;;;;;;5040866;28;20589;-68
2022/12/28 03:00:22;;;;;;;5.10;3.60;;;5.80;1.00;;;;;;5044126;28;20451;-71
2022/12/28 03:03:08;;;;;;;7.70;4.10;;;5.90;1.00;;;;;;5047170;28;20473;-70
2022/12/28 03:09:15;;;;;;;4.80;3.70;;;5.90;1.00;;;;;;5046088;28;20549;-70
2022/12/28 03:11:52;;;;;;;6.03;3.40;;;5.90;1.00;;;;;;5047588;28;20466;-70
2022/12/28 03:14:27;;;;;;;4.23;3.13;;;5.90;1.00;;;;;;5047028;28;20446;-71
2022/12/28 03:31:05;;;;;;;5.47;3.60;;;5.80;1.00;;;;;;5047015;28;20514;-69
2022/12/28 03:33:32;;;;;;;5.57;3.57;;;5.80;1.00;;;;;;5043604;28;20442;-70
2022/12/28 03:36:09;;;;;;;7.17;4.13;;;5.80;1.00;;;;;;5048414;28;20573;-70
2022/12/28 03:38:52;;;;;;;5.60;3.50;;;5.80;1.00;;;;;;5046791;28;20435;-70
2022/12/28 03:41:35;;;;;;;5.37;3.60;;;5.80;1.00;;;;;;5047051;28;20437;-70
2022/12/28 03:44:16;;;;;;;6.77;4.20;;;5.80;1.00;;;;;;5047023;28;20802;-70
2022/12/28 03:46:54;;;;;;;7.17;4.10;;;5.80;1.00;;;;;;5048488;28;20427;-71
2022/12/28 03:49:23;;;;;;;7.10;4.10;;;5.70;1.00;;;;;;5047872;28;20423;-71
2022/12/28 03:51:49;;;;;;;8.07;4.40;;;6.60;1.00;;;;;;5054155;28;20561;-70
2022/12/28 03:54:16;;;;;;;6.77;4.17;;;5.80;1.00;;;;;;5047400;28;20540;-70
2022/12/28 03:56:47;;;;;;;5.20;3.47;;;5.70;1.00;;;;;;5046587;28;20486;-70
2022/12/28 03:59:13;;;;;;;5.70;3.90;;;5.70;1.00;;;;;;5047943;28;20415;-70
2022/12/28 04:01:39;;;;;;;7.40;4.17;;;5.70;1.00;;;;;;5045285;28;20459;-70
2022/12/28 04:04:04;;;;;;;5.93;3.90;;;5.80;1.00;;;;;;5047994;28;20481;-71
2022/12/28 04:06:30;;;;;;;6.90;4.10;;;5.80;1.00;;;;;;5045911;28;20189;-70
2022/12/28 04:08:55;;;;;;;6.00;3.90;;;5.80;1.00;;;;;;5047738;28;20184;-71
2022/12/28 04:11:21;;;;;;;6.23;3.77;;;5.80;1.00;;;;;;5045728;28;20584;-70
2022/12/28 04:13:46;;;;;;;6.57;3.87;;;6.00;1.00;;;;;;5047533;28;20256;-70
2022/12/28 04:16:13;;;;;;;6.73;3.87;;;5.80;1.00;;;;;;5046963;28;20203;-70
2022/12/28 04:18:40;;;;;;;6.10;4.20;;;5.80;1.00;;;;;;5047752;28;20197;-70
2022/12/28 04:21:06;;;;;;;5.57;4.03;;;5.80;1.00;;;;;;5046385;28;20451;-71
2022/12/28 04:23:32;;;;;;;11.27;4.43;;;6.30;1.00;;;;;;5045861;28;20423;-67
2022/12/28 04:26:04;;;;;;;5.07;4.07;;;6.10;1.00;;;;;;5046723;28;20538;-70
2022/12/28 04:28:30;;;;;;;4.67;3.73;;;5.80;1.00;;;;;;5045690;28;20905;-68
2022/12/28 04:30:57;;;;;;;6.67;3.60;;;6.10;1.00;;;;;;5039206;28;20451;-70
2022/12/28 04:33:23;;;;;;;8.23;4.17;;;5.80;1.00;;;;;;5044478;28;20495;-70
2022/12/28 04:35:49;;;;;;;9.90;4.67;;;6.10;1.00;;;;;;5047499;28;20467;-70
2022/12/28 04:38:14;;;;;;;8.53;4.00;;;6.20;1.00;;;;;;5047686;28;20177;-69
2022/12/28 04:40:40;;;;;;;4.60;3.60;;;5.80;1.00;;;;;;5053279;28;20292;-70
2022/12/28 04:43:05;;;;;;;5.73;3.70;;;5.90;1.00;;;;;;5048263;28;20543;-70
2022/12/28 04:45:31;;;;;;;6.90;3.60;;;5.90;1.00;;;;;;5050096;28;20189;-70
2022/12/28 04:47:57;;;;;;;5.60;4.00;;;5.90;1.00;;;;;;5050200;28;20181;-70
2022/12/28 04:50:23;;;;;;;9.40;3.83;;;6.30;1.00;;;;;;5049974;28;20248;-70
2022/12/28 04:52:49;;;;;;;9.97;3.83;;;5.90;1.00;;;;;;5058428;28;20430;-71
2022/12/28 04:55:15;;;;;;;4.43;3.80;;;5.90;1.00;;;;;;5050041;28;20525;-70
2022/12/28 04:57:42;;;;;;;6.53;3.87;;;6.00;1.00;;;;;;5050688;28;20173;-70
2022/12/28 05:00:09;;;;;;;7.00;3.80;;;6.00;1.00;;;;;;5049303;28;20323;-70
2022/12/28 05:02:34;;;;;;;6.13;3.50;;;6.00;1.00;;;;;;5048814;28;20463;-70
2022/12/28 05:05:00;;;;;;;5.40;4.00;;;6.10;1.00;;;;;;5051093;28;20837;-70
2022/12/28 05:07:26;;;;;;;5.40;3.80;;;6.10;1.00;;;;;;5049747;28;20185;-71
2022/12/28 05:09:52;;;;;;;7.87;3.63;;;6.20;1.00;;;;;;5050860;28;20205;-70
2022/12/28 05:12:17;;;;;;;5.20;3.77;;;6.20;1.00;;;;;;5046278;28;20597;-70
2022/12/28 05:14:43;;;;;;;7.70;4.00;;;6.20;1.00;;;;;;5050427;28;20180;-71
2022/12/28 05:17:09;;;;;;;6.53;4.00;;;6.20;1.00;;;;;;5049948;28;20165;-71
2022/12/28 05:19:34;;;;;;;4.70;3.13;;;6.20;1.00;;;;;;5047600;28;20181;-70
2022/12/28 05:22:00;;;;;;;6.93;3.40;;;6.20;1.00;;;;;;5047252;28;20276;-70
2022/12/28 05:24:25;;;;;;;4.03;3.40;;;6.20;1.00;;;;;;5061656;28;20169;-69
2022/12/28 05:26:51;;;;;;;5.53;3.87;;;6.30;1.00;;;;;;5049804;28;20185;-70
2022/12/28 05:29:16;;;;;;;21.40;3.77;;;6.30;1.00;;;;;;5050297;28;20303;-70
2022/12/28 05:31:42;;;;;;;5.73;3.70;;;6.30;1.00;;;;;;5046265;28;20815;-70
2022/12/28 05:34:07;;;;;;;5.60;3.57;;;6.20;1.00;;;;;;5046012;28;20178;-70
2022/12/28 05:36:36;;;;;;;7.50;3.40;;;6.20;1.00;;;;;;5049465;28;20600;-70
2022/12/28 05:39:03;;;;;;;7.40;3.53;;;6.30;1.00;;;;;;5041925;28;20180;-70
2022/12/28 05:41:29;;;;;;;4.40;3.20;;;6.20;1.00;;;;;;5045278;28;20572;-71
2022/12/28 05:43:56;;;;;;;5.50;3.60;;;6.30;1.00;;;;;;5047331;28;20451;-70
2022/12/28 05:46:25;;;;;;;4.83;3.70;;;6.30;1.00;;;;;;5048999;28;20953;-70
2022/12/28 05:48:51;;;;;;;5.30;3.87;;;6.30;1.00;;;;;;5045744;28;20907;-70
2022/12/28 05:51:19;;;;;;;3.90;3.00;;;6.30;1.00;;;;;;5039016;28;20455;-70
2022/12/28 05:53:45;;;;;;;9.47;3.30;;;6.30;1.00;;;;;;5048513;28;20781;-70
2022/12/28 05:56:19;;;;;;;4.20;3.27;;;6.30;1.00;;;;;;5048982;28;20525;-69
2022/12/28 05:58:50;;;;;;;6.30;3.57;;;6.30;1.00;;;;;;5049557;28;20268;-70
2022/12/28 06:01:19;;;;;;;6.67;3.43;;;6.40;1.00;;;;;;5056825;28;20467;-70
2022/12/28 06:03:45;;;;;;;6.20;3.30;;;6.40;1.00;;;;;;5046565;28;20432;-70
2022/12/28 06:06:18;;;;;;;6.10;3.00;;;6.40;1.00;;;;;;5046297;28;20440;-70
2022/12/28 06:08:45;;;;;;;7.73;2.90;;;6.30;1.00;;;;;;5048834;28;20500;-71
2022/12/28 06:11:14;;;;;;;6.37;3.97;;;6.20;1.00;;;;;;5047957;28;20739;-69
2022/12/28 06:13:40;;;;;;;6.00;3.90;;;6.20;1.00;;;;;;5046111;28;20530;-70
2022/12/28 06:16:09;;;;;;;3.93;3.03;;;6.20;1.00;;;;;;5049696;28;20471;-70
2022/12/28 06:18:35;;;;;;;5.73;3.50;;;6.20;1.00;;;;;;5049744;28;20399;-71
2022/12/28 06:21:06;;;;;;;7.83;4.00;;;6.20;1.00;;;;;;5047582;28;20957;-68
2022/12/28 06:23:31;;;;;;;5.80;3.50;;;6.30;1.00;;;;;;5056579;28;20176;-69
2022/12/28 06:26:02;;;;;;;6.33;3.47;;;6.30;1.00;;;;;;5058745;28;20426;-70
2022/12/28 06:28:28;;;;;;;5.50;3.57;;;6.30;1.00;;;;;;5047316;28;20181;-70
2022/12/28 06:31:07;;;;;;;7.00;3.77;;;6.30;1.00;;;;;;5041805;28;20930;-70
2022/12/28 06:33:33;;;;;;;5.80;3.23;;;6.30;1.00;;;;;;5049400;28;20201;-69
2022/12/28 06:35:59;;;;;;;4.60;3.30;;;6.30;1.00;;;;;;5049229;28;20499;-70
2022/12/28 06:38:31;;;;;;;6.40;3.40;;;6.40;1.00;;;;;;5047898;28;20443;-71
2022/12/28 06:41:01;;;;;;;4.17;3.00;;;6.20;1.00;;;;;;5048584;28;20707;-71
2022/12/28 06:43:30;;;;;;;5.50;3.13;;;6.60;1.00;;;;;;5044372;28;20458;-69
2022/12/28 06:45:56;;;;;;;4.70;3.00;;;6.10;1.00;;;;;;5048949;28;20410;-70
2022/12/28 06:48:22;;;;;;;3.93;3.20;;;6.00;1.00;;;;;;5047767;28;20431;-70
2022/12/28 06:50:59;;;;;;;4.83;3.33;;;5.90;1.00;;;;;;5046056;28;20209;-70
2022/12/28 06:53:27;;;;;;;5.17;3.43;;;6.10;1.00;;;;;;5046857;28;20589;-70
2022/12/28 06:55:58;;;;;;;5.00;3.60;;;5.90;1.00;;;;;;5047413;28;20474;-70
2022/12/28 06:58:25;;;;;;;3.80;2.90;;;6.00;1.00;;;;;;5045801;28;20428;-70
2022/12/28 07:00:51;;;;;;;5.40;3.33;;;5.70;1.00;;;;;;5047013;28;20490;-70
2022/12/28 07:03:17;;;;;;;4.60;3.10;;;5.20;1.00;;;;;;5044504;28;20440;-70
2022/12/28 07:05:43;;;;;;;4.93;3.60;;;5.60;1.00;;;;;;5048446;28;20486;-70
2022/12/28 07:08:08;;;;;;;5.20;3.43;;;5.40;1.00;;;;;;5044912;28;20517;-69
2022/12/28 07:10:34;;;;;;;6.50;3.20;;;5.40;1.00;;;;;;5048635;28;20275;-70
2022/12/28 07:13:00;;;;;;;5.67;4.27;;;5.50;1.00;;;;;;5037199;28;20643;-71
2022/12/28 07:15:25;;;;;;;13.07;7.00;;;5.70;1.00;;;;;;5046792;28;20231;-70
2022/12/28 07:17:51;;;;;;;14.33;7.17;;;5.60;1.00;;;;;;5053961;28;20173;-69
2022/12/28 07:20:16;;;;;;;12.07;6.83;;;5.70;1.00;;;;;;5048397;28;20238;-70
2022/12/28 07:22:42;;;;;;;11.70;6.77;;;5.60;1.00;;;;;;5054752;28;20188;-70
2022/12/28 07:25:08;;;;;;;16.57;7.13;;;5.60;1.00;;;;;;5048603;28;20161;-70
2022/12/28 07:27:34;;;;;;;12.63;7.50;;;5.60;1.00;;;;;;5047036;28;20272;-70
2022/12/28 07:30:00;;;;;;;12.87;6.60;;;5.60;1.00;;;;;;5048127;28;20200;-70
2022/12/28 07:32:26;;;;;;;9.17;5.93;;;5.70;1.00;;;;;;5046194;28;20435;-69
2022/12/28 07:34:51;;;;;;;6.07;4.10;;;6.10;1.00;;;;;;5042469;28;20177;-70
2022/12/28 07:37:17;;;;;;;5.57;4.20;;;5.80;1.00;;;;;;5042234;28;20172;-70
2022/12/28 07:39:42;;;;;;;10.90;5.00;;;5.90;1.00;;;;;;5043217;28;20178;-70
2022/12/28 07:42:10;;;;;;;5.93;4.50;;;6.00;1.00;;;;;;5045365;28;20264;-70
2022/12/28 07:44:36;;;;;;;5.00;4.03;;;6.00;1.00;;;;;;5047195;28;20180;-71
2022/12/28 07:47:01;;;;;;;6.57;4.20;;;6.20;1.00;;;;;;5048190;28;20466;-71
2022/12/28 07:49:27;;;;;;;7.20;4.47;;;6.10;1.00;;;;;;5046539;28;20468;-71
2022/12/28 07:51:52;;;;;;;8.10;4.63;;;6.20;1.00;;;;;;5040456;28;20232;-70
2022/12/28 07:54:18;;;;;;;6.77;4.30;;;6.20;1.00;;;;;;5047968;28;20718;-71
2022/12/28 07:56:43;;;;;;;9.43;4.23;;;6.60;1.00;;;;;;5046535;28;20201;-71
2022/12/28 07:59:12;;;;;;;6.43;4.17;;;6.50;1.00;;;;;;5045974;28;20578;-69
2022/12/28 08:01:37;;;;;;;6.77;4.00;;;6.40;1.00;;;;;;5046139;28;20256;-70
2022/12/28 08:04:06;;;;;;;6.60;3.67;;;6.40;1.00;;;;;;5047147;28;20984;-70
2022/12/28 08:06:40;;;;;;;6.40;3.50;;;7.00;1.00;;;;;;5047046;28;20173;-70
2022/12/28 08:09:07;;;;;;;4.50;3.10;;;6.60;1.00;;;;;;5040615;28;20404;-70
2022/12/28 08:11:35;;;;;;;5.40;3.37;;;6.60;1.00;;;;;;5041786;28;20498;-70
2022/12/28 08:14:02;;;;;;;5.30;3.47;;;6.40;1.00;;;;;;5047986;28;20419;-70
2022/12/28 08:16:31;;;;;;;13.93;3.60;;;6.70;1.00;;;;;;5048159;28;20504;-67
2022/12/28 08:18:57;;;;;;;4.40;2.87;;;6.80;1.00;;;;;;5048295;28;20424;-71
2022/12/28 08:21:32;;;;;;;9.33;3.40;;;6.80;1.00;;;;;;5044069;28;21065;-70
2022/12/28 08:23:58;;;;;;;5.60;2.97;;;6.90;1.00;;;;;;5049332;28;20169;-69
2022/12/28 08:26:33;;;;;;;5.33;3.07;;;6.90;1.00;;;;;;5049858;28;20457;-70
2022/12/28 08:29:01;;;;;;;10.53;3.50;;;6.90;1.00;;;;;;5051870;28;21125;-70
2022/12/28 08:31:30;;;;;;;5.00;3.97;;;6.90;1.00;;;;;;5047897;28;20481;-70
2022/12/28 08:33:57;;;;;;;11.73;5.27;;;7.00;1.00;;;;;;5057218;28;20461;-70
2022/12/28 08:36:23;;;;;;;14.33;7.67;;;7.00;1.00;;;;;;5050710;28;20486;-70
2022/12/28 08:38:50;;;;;;;20.73;10.30;;;7.10;1.00;;;;;;5050788;28;20914;-70
2022/12/28 15:40:15;;;;;;;3.50;1.70;;;9.30;1.00;;;;;;5090024;28;20957;-69
2022/12/28 15:42:45;;;;;;;3.50;1.93;;;9.40;1.00;;;;;;5059932;28;20478;-70
2022/12/28 15:45:11;;;;;;;5.47;2.10;;;9.40;1.00;;;;;;5046039;28;20200;-69
2022/12/28 15:47:36;;;;;;;2.73;1.67;;;9.60;1.00;;;;;;5046139;28;20469;-71
2022/12/28 15:50:03;;;;;;;3.10;1.67;;;9.70;1.00;;;;;;5049782;28;20442;-70
2022/12/28 15:52:30;;;;;;;5.50;2.20;;;9.80;1.00;;;;;;5072941;28;20168;-70
2022/12/28 15:54:56;;;;;;;3.00;1.80;;;9.90;1.00;;;;;;5085564;28;20434;-70
2022/12/28 15:57:21;;;;;;;2.63;2.10;;;9.90;1.00;;;;;;5084571;28;20869;-70
2022/12/28 15:59:47;;;;;;;4.87;2.33;;;10.10;1.00;;;;;;5061857;28;20308;-70
2022/12/28 16:02:12;;;;;;;4.73;1.90;;;10.10;1.00;;;;;;5044721;28;20181;-71
2022/12/28 16:04:38;;;;;;;3.50;2.10;;;10.10;1.00;;;;;;5045550;28;20173;-71
2022/12/28 16:07:03;;;;;;;4.53;2.40;;;10.20;1.00;;;;;;5044522;28;20180;-70
2022/12/28 16:09:29;;;;;;;4.03;2.40;;;10.20;1.00;;;;;;5056569;28;20179;-70
2022/12/28 16:11:54;;;;;;;4.23;2.10;;;10.30;1.00;;;;;;5064914;28;20200;-70
2022/12/28 16:14:20;;;;;;;4.03;2.33;;;10.30;1.00;;;;;;5065625;28;20172;-72
2022/12/28 16:16:46;;;;;;;3.60;2.40;;;10.30;1.00;;;;;;5071081;28;20687;-70
2022/12/28 16:19:13;;;;;;;4.20;2.70;;;10.30;1.00;;;;;;5059894;28;20210;-70
2022/12/28 16:21:39;;;;;;;2.87;2.30;;;10.30;1.00;;;;;;5054270;28;20201;-72
2022/12/28 16:24:05;;;;;;;4.73;3.00;;;10.30;1.00;;;;;;5072395;28;20762;-72
2022/12/28 16:26:30;;;;;;;3.53;2.43;;;10.30;1.00;;;;;;5056265;28;20431;-69
2022/12/28 16:28:59;;;;;;;9.90;5.00;;;10.30;1.00;;;;;;5061941;28;20211;-70
2022/12/28 16:31:27;;;;;;;7.63;3.40;;;10.30;1.00;;;;;;5058779;28;20196;-69
2022/12/28 16:33:58;;;;;;;3.87;2.90;;;10.30;1.00;;;;;;5058561;28;20433;-70
2022/12/28 16:36:24;;;;;;;3.20;2.30;;;10.30;1.00;;;;;;5056352;28;20435;-68
2022/12/28 16:38:50;;;;;;;3.23;2.27;;;10.30;1.00;;;;;;5051336;28;20470;-68
2022/12/28 16:41:16;;;;;;;5.40;2.90;;;10.20;1.00;;;;;;5059877;28;20196;-71
2022/12/28 16:43:42;;;;;;;7.73;2.27;;;10.30;1.00;;;;;;5082118;28;20908;-70
2022/12/28 16:46:08;;;;;;;4.80;3.13;;;10.30;1.00;;;;;;5062327;28;20441;-71
2022/12/28 16:48:34;;;;;;;5.60;2.70;;;10.30;1.00;;;;;;5064632;28;20188;-70
2022/12/28 16:51:00;;;;;;;4.43;2.83;;;10.30;1.00;;;;;;5043539;28;20329;-69
2022/12/28 16:53:27;;;;;;;7.90;3.13;;;10.30;1.00;;;;;;5055074;28;20428;-70
2022/12/28 16:55:53;;;;;;;3.73;3.00;;;10.30;1.00;;;;;;5044956;28;20513;-70
2022/12/28 16:58:18;;;;;;;7.27;4.30;;;10.20;1.00;;;;;;5051228;28;20451;-70
2022/12/28 17:00:44;;;;;;;11.00;5.60;;;10.30;1.00;;;;;;5047866;28;20683;-70
2022/12/28 17:03:10;;;;;;;11.10;5.60;;;10.30;1.00;;;;;;5047147;28;20260;-70
2022/12/28 17:05:36;;;;;;;11.10;5.07;;;10.20;1.00;;;;;;5047892;28;20169;-70
2022/12/28 17:08:02;;;;;;;5.50;3.90;;;10.20;1.00;;;;;;5041993;28;20540;-70
2022/12/28 17:10:29;;;;;;;5.80;3.70;;;10.20;1.00;;;;;;5042351;28;20197;-70
2022/12/28 17:12:54;;;;;;;4.10;3.30;;;10.20;1.00;;;;;;5043714;28;20527;-70
2022/12/28 17:15:20;;;;;;;5.20;3.10;;;10.10;1.00;;;;;;5049556;28;20878;-70
2022/12/28 17:17:45;;;;;;;4.20;3.07;;;10.10;1.00;;;;;;5043182;28;20181;-70
2022/12/28 17:20:11;;;;;;;6.27;3.27;;;10.10;1.00;;;;;;5051045;28;20266;-69
2022/12/28 17:22:37;;;;;;;4.07;3.00;;;10.10;1.00;;;;;;5053111;28;20257;-70
2022/12/28 17:25:03;;;;;;;5.60;3.60;;;10.10;1.00;;;;;;5051307;28;20181;-70
2022/12/28 17:27:28;;;;;;;9.63;4.20;;;10.20;1.00;;;;;;5046590;28;20186;-71
2022/12/28 17:29:54;;;;;;;5.43;3.70;;;10.20;1.00;;;;;;5049520;28;20805;-69
2022/12/28 17:32:19;;;;;;;6.03;4.07;;;10.20;1.00;;;;;;5040561;28;20383;-71
2022/12/28 17:34:45;;;;;;;6.30;3.40;;;10.10;1.00;;;;;;5049497;28;20307;-70
2022/12/28 17:37:10;;;;;;;8.30;6.00;;;10.00;1.00;;;;;;5047200;28;20177;-70
2022/12/28 17:39:37;;;;;;;8.40;5.60;;;10.00;1.00;;;;;;5039611;28;20213;-68
2022/12/28 17:42:03;;;;;;;8.83;5.40;;;10.00;1.00;;;;;;5049398;28;20680;-70
2022/12/28 17:44:29;;;;;;;17.23;11.07;;;9.90;1.00;;;;;;5047759;28;20435;-69
2022/12/28 17:46:55;;;;;;;10.67;7.00;;;9.90;1.00;;;;;;5050616;28;20790;-70
2022/12/28 17:49:20;;;;;;;7.87;4.80;;;9.90;1.00;;;;;;5046375;28;20458;-70
2022/12/28 17:51:46;;;;;;;5.83;3.70;;;9.90;1.00;;;;;;5058032;28;20665;-70
2022/12/28 17:54:14;;;;;;;4.27;3.60;;;9.90;1.00;;;;;;5045840;28;20176;-69
2022/12/28 17:56:40;;;;;;;7.33;3.53;;;9.80;1.00;;;;;;5050298;28;20219;-70
2022/12/28 17:59:10;;;;;;;8.43;3.90;;;9.80;1.00;;;;;;5045999;28;20451;-70
2022/12/28 18:01:35;;;;;;;6.30;3.80;;;9.80;1.00;;;;;;5048312;28;20435;-70
2022/12/28 18:04:01;;;;;;;5.67;3.80;;;9.80;1.00;;;;;;5041284;28;20797;-70
2022/12/28 18:06:26;;;;;;;4.00;2.83;;;9.80;1.00;;;;;;5050490;28;20179;-69
2022/12/28 18:08:52;;;;;;;3.10;2.80;;;9.70;1.00;;;;;;5042319;28;20648;-70
2022/12/28 18:11:17;;;;;;;4.70;3.00;;;9.70;1.00;;;;;;5045153;28;20205;-70
2022/12/28 18:13:44;;;;;;;5.40;3.27;;;9.70;1.00;;;;;;5042516;28;20284;-70
2022/12/28 18:16:13;;;;;;;4.93;3.07;;;9.70;1.00;;;;;;5048393;28;20548;-70
2022/12/28 18:18:39;;;;;;;4.77;3.17;;;9.70;1.00;;;;;;5044927;28;20475;-70
2022/12/28 18:21:07;;;;;;;4.83;3.30;;;9.60;1.00;;;;;;5049680;28;20439;-70
2022/12/28 18:23:33;;;;;;;5.30;3.20;;;9.60;1.00;;;;;;5049679;28;20186;-70
2022/12/28 18:26:07;;;;;;;5.10;2.97;;;9.60;1.00;;;;;;5048393;28;20432;-70
2022/12/28 18:28:33;;;;;;;7.93;2.40;;;9.50;1.00;;;;;;5046252;28;21050;-70
2022/12/28 18:31:00;;;;;;;4.33;2.73;;;9.60;1.00;;;;;;5043641;28;20851;-68
2022/12/28 18:33:25;;;;;;;4.03;2.80;;;9.60;1.00;;;;;;5044579;28;20878;-70
2022/12/28 18:35:51;;;;;;;2.73;2.20;;;9.70;1.00;;;;;;5042948;28;20464;-70
2022/12/28 18:38:17;;;;;;;3.10;2.10;;;9.70;1.00;;;;;;5047328;28;20250;-70
2022/12/28 18:40:42;;;;;;;2.63;2.20;;;9.70;1.00;;;;;;5036444;28;20281;-70
2022/12/28 18:43:08;;;;;;;3.63;2.47;;;9.70;1.00;;;;;;5043935;28;20529;-70
2022/12/28 18:45:33;;;;;;;4.83;3.23;;;9.70;1.00;;;;;;5036423;28;20184;-70
2022/12/28 18:47:59;;;;;;;8.03;4.03;;;9.70;1.00;;;;;;5047088;28;20184;-71
2022/12/28 18:50:24;;;;;;;10.43;5.10;;;9.70;1.00;;;;;;5044971;28;20193;-70
2022/12/28 18:52:50;;;;;;;7.47;3.50;;;9.70;1.00;;;;;;5051177;28;20170;-70
2022/12/28 18:55:16;;;;;;;3.00;2.30;;;9.80;1.00;;;;;;5042417;28;20540;-70
2022/12/28 18:57:41;;;;;;;5.33;3.87;;;9.80;1.00;;;;;;5048944;28;20643;-70
2022/12/28 19:00:09;;;;;;;5.50;3.10;;;9.80;1.00;;;;;;5043395;28;20217;-70
2022/12/28 19:02:36;;;;;;;4.27;2.87;;;9.90;1.00;;;;;;5041849;28;20174;-72
2022/12/28 19:05:02;;;;;;;3.43;2.63;;;9.90;1.00;;;;;;5049673;28;20412;-70
2022/12/28 19:07:27;;;;;;;4.90;2.83;;;10.00;1.00;;;;;;5040888;28;20428;-69
2022/12/28 19:10:11;;;;;;;4.83;3.03;;;10.00;1.00;;;;;;5046868;28;20435;-71
2022/12/28 19:12:37;;;;;;;4.40;3.30;;;10.00;1.00;;;;;;5042878;28;20181;-70
2022/12/28 19:15:04;;;;;;;5.93;4.60;;;10.00;1.00;;;;;;5048952;28;20415;-70
2022/12/28 19:17:30;;;;;;;11.70;5.50;;;10.10;1.00;;;;;;5033911;28;20196;-70
2022/12/28 19:19:55;;;;;;;11.43;7.20;;;10.10;1.00;;;;;;5046520;28;20455;-70
2022/12/28 19:22:21;;;;;;;7.10;4.70;;;10.10;1.00;;;;;;5046131;28;20179;-70
2022/12/28 19:24:47;;;;;;;6.00;4.27;;;10.00;1.00;;;;;;5049166;28;20173;-70
2022/12/28 19:27:12;;;;;;;8.70;4.40;;;10.00;1.00;;;;;;5044683;28;20183;-69
2022/12/28 19:29:38;;;;;;;4.40;3.50;;;10.00;1.00;;;;;;5046796;28;20169;-70
2022/12/28 19:32:03;;;;;;;4.40;3.37;;;9.90;1.00;;;;;;5042833;28;20204;-70
2022/12/28 19:34:29;;;;;;;6.00;3.60;;;9.90;1.00;;;;;;5047466;28;20173;-69
2022/12/28 19:36:54;;;;;;;4.77;3.20;;;9.90;1.00;;;;;;5036144;28;20219;-70
2022/12/28 19:39:20;;;;;;;4.30;3.50;;;9.90;1.00;;;;;;5044716;28;20205;-71
2022/12/28 19:41:45;;;;;;;9.60;3.90;;;9.80;1.00;;;;;;5044543;28;20193;-70
2022/12/28 19:44:11;;;;;;;5.43;3.50;;;9.80;1.00;;;;;;5049186;28;20204;-70
2022/12/28 19:46:37;;;;;;;5.37;3.90;;;9.80;1.00;;;;;;5043571;28;20185;-70
2022/12/28 19:49:03;;;;;;;5.17;3.20;;;9.80;1.00;;;;;;5037406;28;20169;-70
2022/12/28 19:51:30;;;;;;;4.30;2.70;;;9.80;1.00;;;;;;5044693;28;20879;-71
2022/12/28 19:53:55;;;;;;;3.20;2.73;;;9.90;1.00;;;;;;5045707;28;20527;-69
2022/12/28 19:56:21;;;;;;;3.13;2.43;;;9.90;1.00;;;;;;5046571;28;20510;-71
2022/12/28 19:58:47;;;;;;;3.93;3.17;;;9.90;1.00;;;;;;5052955;28;20209;-70
2022/12/28 20:01:16;;;;;;;2.90;2.50;;;9.90;1.00;;;;;;5047607;28;20447;-69
2022/12/28 20:03:42;;;;;;;3.90;2.77;;;9.90;1.00;;;;;;5037025;28;20486;-70
2022/12/28 20:06:11;;;;;;;3.07;2.60;;;10.00;1.00;;;;;;5048257;28;20786;-70
2022/12/28 20:08:36;;;;;;;3.70;2.50;;;10.00;1.00;;;;;;5037274;28;20431;-69
2022/12/28 20:11:03;;;;;;;6.00;3.23;;;10.00;1.00;;;;;;5041747;28;20443;-70
2022/12/28 20:13:32;;;;;;;3.50;2.60;;;10.00;1.00;;;;;;5045357;28;20177;-70
2022/12/28 20:15:58;;;;;;;4.33;2.53;;;10.00;1.00;;;;;;5041681;28;20427;-71
2022/12/28 20:18:24;;;;;;;3.70;3.10;;;10.00;1.00;;;;;;5048629;28;20459;-71
2022/12/28 20:20:50;;;;;;;3.33;2.63;;;10.00;1.00;;;;;;5040628;28;20449;-70
2022/12/28 20:23:15;;;;;;;3.60;2.70;;;10.00;1.00;;;;;;5039314;28;20612;-68
2022/12/28 20:25:52;;;;;;;2.70;2.37;;;10.00;1.00;;;;;;5045660;28;20428;-69
2022/12/28 20:28:18;;;;;;;3.33;2.70;;;10.00;1.00;;;;;;5052023;28;20177;-70
2022/12/28 20:30:47;;;;;;;3.07;2.50;;;10.10;1.00;;;;;;5047507;28;20823;-70
2022/12/28 20:33:14;;;;;;;3.30;2.73;;;10.10;1.00;;;;;;5036973;28;20181;-70